Time;durP1;ratioP1;P1;durP2;ratioP2;P2;SDS_P1;SDS_P2;PMS_P1;PMS_P2;Temp;Humidity;BMP_temperature;BMP_pressure;BME280_temperature;BME280_humidity;BME280_pressure;Samples;Min_cycle;Max_cycle;Signal;HPM_P1;HPM_P2
2023/01/27 00:02:22;;;;;;;12.50;7.37;;;5.90;99.90;;;;;;5036507;28;20481;-56
2023/01/27 00:04:49;;;;;;;10.07;5.43;;;5.90;99.90;;;;;;5036663;28;20788;-57
2023/01/27 00:07:16;;;;;;;13.77;5.50;;;5.80;99.90;;;;;;5036546;28;20466;-56
2023/01/27 00:09:43;;;;;;;10.37;5.13;;;5.80;99.90;;;;;;5036426;28;20458;-57
2023/01/27 00:15:03;;;;;;;16.50;7.23;;;5.70;99.90;;;;;;5035603;28;20536;-57
2023/01/27 00:17:30;;;;;;;9.70;6.10;;;5.70;99.90;;;;;;5035748;28;20486;-57
2023/01/27 00:19:57;;;;;;;8.70;5.40;;;5.70;99.90;;;;;;5036167;28;20451;-56
2023/01/27 00:25:08;;;;;;;10.50;4.97;;;5.70;99.90;;;;;;5036131;28;20778;-57
2023/01/27 00:27:36;;;;;;;8.77;4.87;;;5.70;99.90;;;;;;5036403;28;20454;-56
2023/01/27 00:30:04;;;;;;;7.50;4.37;;;5.60;99.90;;;;;;5035909;28;20843;-56
2023/01/27 00:35:15;;;;;;;8.30;3.70;;;5.60;99.90;;;;;;5036860;28;20482;-56
2023/01/27 00:37:42;;;;;;;8.27;4.47;;;5.60;99.90;;;;;;5038276;28;20458;-56
2023/01/27 00:40:10;;;;;;;8.97;6.07;;;5.60;99.90;;;;;;5037493;28;20450;-57
2023/01/27 00:42:38;;;;;;;8.17;4.40;;;5.70;99.90;;;;;;5036032;28;20979;-56
2023/01/27 00:47:51;;;;;;;12.30;6.20;;;5.70;99.90;;;;;;5036567;28;20545;-56
2023/01/27 00:50:18;;;;;;;5.57;4.10;;;5.70;99.90;;;;;;5036781;28;20949;-56
2023/01/27 00:52:45;;;;;;;8.67;4.07;;;5.70;99.90;;;;;;5036948;28;20474;-56
2023/01/27 00:55:14;;;;;;;15.43;4.87;;;5.70;99.90;;;;;;5036416;28;20493;-56
2023/01/27 00:57:43;;;;;;;13.90;4.23;;;5.70;99.90;;;;;;5036071;28;20442;-56
2023/01/27 01:00:11;;;;;;;11.30;5.07;;;5.70;99.90;;;;;;5035795;28;20454;-56
2023/01/27 01:02:38;;;;;;;22.63;6.13;;;5.70;99.90;;;;;;5035890;28;20554;-56
2023/01/27 01:05:05;;;;;;;8.90;3.60;;;5.70;99.90;;;;;;5035707;28;20450;-57
2023/01/27 01:07:32;;;;;;;9.37;4.47;;;5.70;99.90;;;;;;5035825;28;20439;-56
2023/01/27 01:09:59;;;;;;;10.07;4.40;;;5.80;99.90;;;;;;5035303;28;20451;-56
2023/01/27 01:12:26;;;;;;;9.53;3.53;;;5.80;99.90;;;;;;5035730;28;20473;-56
2023/01/27 01:14:54;;;;;;;9.43;4.50;;;5.80;99.90;;;;;;5035429;28;20490;-56
2023/01/27 01:17:21;;;;;;;8.87;5.13;;;5.80;99.90;;;;;;5035007;28;20438;-57
2023/01/27 01:19:48;;;;;;;7.20;4.83;;;5.80;99.90;;;;;;5035081;28;20442;-57
2023/01/27 01:22:15;;;;;;;8.37;5.00;;;5.80;99.90;;;;;;5034909;28;20473;-57
2023/01/27 01:24:42;;;;;;;12.33;5.20;;;5.80;99.90;;;;;;5034706;28;20446;-56
2023/01/27 01:27:08;;;;;;;10.80;5.23;;;5.80;99.90;;;;;;5034386;28;20856;-56
2023/01/27 01:29:35;;;;;;;8.43;4.90;;;5.80;99.90;;;;;;5034790;28;20462;-56
2023/01/27 01:32:03;;;;;;;11.90;7.10;;;5.80;99.90;;;;;;5034294;28;20485;-57
2023/01/27 01:34:30;;;;;;;10.80;6.87;;;5.70;99.90;;;;;;5034236;28;20483;-57
2023/01/27 01:36:57;;;;;;;12.83;7.30;;;5.70;99.90;;;;;;5034039;28;20959;-57
2023/01/27 01:39:23;;;;;;;7.83;6.10;;;5.70;99.90;;;;;;5034081;28;20493;-57
2023/01/27 01:41:50;;;;;;;9.80;6.63;;;5.80;99.90;;;;;;5034429;28;20461;-57
2023/01/27 01:44:22;;;;;;;11.00;6.30;;;5.80;99.90;;;;;;5034295;28;20504;-57
2023/01/27 01:46:48;;;;;;;12.07;6.40;;;5.80;99.90;;;;;;5034152;28;20457;-56
2023/01/27 01:49:20;;;;;;;13.40;5.70;;;5.80;99.90;;;;;;5034376;28;20430;-56
2023/01/27 01:51:50;;;;;;;11.40;5.90;;;5.80;99.90;;;;;;5034236;28;20445;-56
2023/01/27 01:54:20;;;;;;;7.77;5.50;;;5.70;99.90;;;;;;5034266;28;20477;-56
2023/01/27 01:56:51;;;;;;;16.37;6.43;;;5.80;99.90;;;;;;5034561;28;20444;-56
2023/01/27 01:59:20;;;;;;;13.40;6.53;;;5.70;99.90;;;;;;5034266;28;20442;-56
2023/01/27 02:01:47;;;;;;;15.63;6.97;;;5.70;99.90;;;;;;5034078;28;20460;-57
2023/01/27 02:04:18;;;;;;;9.00;6.57;;;5.70;99.90;;;;;;5034203;28;20457;-56
2023/01/27 02:06:50;;;;;;;15.33;6.60;;;5.70;99.90;;;;;;5034114;28;20431;-57
2023/01/27 02:09:18;;;;;;;8.60;6.97;;;5.80;99.90;;;;;;5033504;28;20810;-57
2023/01/27 02:11:44;;;;;;;19.63;7.20;;;5.80;99.90;;;;;;5033401;28;20962;-57
2023/01/27 02:14:14;;;;;;;10.83;6.70;;;5.70;99.90;;;;;;5029747;28;20485;-57
2023/01/27 02:16:41;;;;;;;15.90;6.87;;;5.70;99.90;;;;;;5033347;28;20462;-57
2023/01/27 02:19:12;;;;;;;8.77;6.47;;;5.80;99.90;;;;;;5033592;28;20454;-57
2023/01/27 02:21:40;;;;;;;10.60;6.97;;;5.80;99.90;;;;;;5032949;28;20443;-58
2023/01/27 02:24:11;;;;;;;14.20;7.93;;;5.80;99.90;;;;;;5033484;28;20488;-57
2023/01/27 02:26:42;;;;;;;12.93;7.23;;;5.80;99.90;;;;;;5033078;28;20934;-57
2023/01/27 02:29:12;;;;;;;13.27;7.67;;;5.80;99.90;;;;;;5033874;28;20441;-57
2023/01/27 02:31:39;;;;;;;13.70;7.50;;;5.80;99.90;;;;;;5033622;28;20457;-57
2023/01/27 02:34:09;;;;;;;11.80;6.93;;;5.80;99.90;;;;;;5033867;28;20457;-57
2023/01/27 02:36:39;;;;;;;12.30;8.43;;;5.80;99.90;;;;;;5033606;28;20449;-57
2023/01/27 02:39:10;;;;;;;11.93;7.17;;;5.80;99.90;;;;;;5032440;28;20469;-57
2023/01/27 02:41:42;;;;;;;12.70;7.80;;;5.80;99.90;;;;;;5033867;28;20460;-57
2023/01/27 02:44:09;;;;;;;12.60;7.57;;;5.80;99.90;;;;;;5033172;28;20434;-57
2023/01/27 02:46:36;;;;;;;11.50;7.30;;;5.80;99.90;;;;;;5034656;28;20804;-57
2023/01/27 02:49:04;;;;;;;12.73;6.80;;;5.80;99.90;;;;;;5033136;28;20450;-57
2023/01/27 02:51:31;;;;;;;18.13;8.73;;;5.90;99.90;;;;;;5033524;28;20455;-57
2023/01/27 02:53:57;;;;;;;14.27;8.40;;;5.80;99.90;;;;;;5033114;28;20474;-57
2023/01/27 02:56:24;;;;;;;12.70;8.53;;;5.80;99.90;;;;;;5033477;28;20485;-57
2023/01/27 02:58:52;;;;;;;17.27;9.03;;;5.80;99.90;;;;;;5033378;28;20458;-57
2023/01/27 03:01:19;;;;;;;12.73;9.30;;;5.80;99.90;;;;;;5033384;28;20874;-57
2023/01/27 03:03:46;;;;;;;16.73;9.87;;;5.80;99.90;;;;;;5033373;28;20470;-57
2023/01/27 03:06:13;;;;;;;17.30;10.33;;;5.70;99.90;;;;;;5033390;28;20462;-57
2023/01/27 03:08:40;;;;;;;16.13;9.37;;;5.70;99.90;;;;;;5032974;28;20466;-57
2023/01/27 03:11:07;;;;;;;16.43;10.17;;;5.70;99.90;;;;;;5033331;28;20462;-57
2023/01/27 03:13:35;;;;;;;15.70;9.20;;;5.70;99.90;;;;;;5033300;28;20886;-57
2023/01/27 03:18:50;;;;;;;13.87;8.53;;;5.70;99.90;;;;;;5033447;28;20492;-57
2023/01/27 03:21:17;;;;;;;11.70;8.53;;;5.70;99.90;;;;;;5033216;28;20446;-57
2023/01/27 03:23:47;;;;;;;17.23;10.43;;;5.70;99.90;;;;;;5033135;28;20553;-57
2023/01/27 03:26:14;;;;;;;18.57;11.57;;;5.70;99.90;;;;;;5033144;28;20455;-57
2023/01/27 03:28:40;;;;;;;16.07;10.87;;;5.70;99.90;;;;;;5033044;28;20504;-57
2023/01/27 03:31:18;;;;;;;15.53;10.03;;;5.60;99.90;;;;;;5033092;28;20507;-57
2023/01/27 03:33:46;;;;;;;16.83;10.33;;;5.60;99.90;;;;;;5032943;28;20478;-57
2023/01/27 03:47:12;;;;;;;9.10;6.50;;;5.50;99.90;;;;;;5032758;28;20779;-57
2023/01/27 03:49:38;;;;;;;8.10;5.83;;;5.50;99.90;;;;;;5032803;28;20449;-57
2023/01/27 03:52:05;;;;;;;11.10;6.70;;;5.50;99.90;;;;;;5036480;28;20474;-57
2023/01/27 03:54:32;;;;;;;8.90;6.40;;;5.50;99.90;;;;;;5036485;28;20484;-57
2023/01/27 03:57:04;;;;;;;13.63;6.67;;;5.50;99.90;;;;;;5036581;28;20447;-57
2023/01/27 03:59:31;;;;;;;9.97;7.37;;;5.50;99.90;;;;;;5036497;28;20437;-57
2023/01/27 04:07:28;;;;;;;6.67;5.33;;;5.40;99.90;;;;;;5036557;28;20775;-57
2023/01/27 04:09:55;;;;;;;7.60;5.37;;;5.40;99.90;;;;;;5036361;28;20473;-57
2023/01/27 04:12:21;;;;;;;7.83;5.30;;;5.40;99.90;;;;;;5036182;28;20509;-57
2023/01/27 04:14:48;;;;;;;10.43;5.50;;;5.40;99.90;;;;;;5036210;28;20514;-57
2023/01/27 04:17:16;;;;;;;7.80;5.60;;;5.40;99.90;;;;;;5036560;28;20446;-57
2023/01/27 04:19:45;;;;;;;9.93;5.60;;;5.40;99.90;;;;;;5036508;28;20455;-57
2023/01/27 04:22:14;;;;;;;8.50;5.40;;;5.40;99.90;;;;;;5036212;28;20500;-57
2023/01/27 04:24:41;;;;;;;8.33;6.00;;;5.50;99.90;;;;;;5036043;28;20455;-57
2023/01/27 04:27:10;;;;;;;9.60;5.90;;;5.50;99.90;;;;;;5035727;28;20981;-57
2023/01/27 04:29:40;;;;;;;10.50;5.80;;;5.50;99.90;;;;;;5035916;28;20450;-57
2023/01/27 04:32:08;;;;;;;8.63;5.53;;;5.50;99.90;;;;;;5035753;28;20469;-57
2023/01/27 04:34:36;;;;;;;7.57;5.87;;;5.40;99.90;;;;;;5035214;28;20829;-57
2023/01/27 04:37:07;;;;;;;7.90;6.00;;;5.40;99.90;;;;;;5035675;28;20446;-57
2023/01/27 04:39:34;;;;;;;8.47;6.23;;;5.40;99.90;;;;;;5035751;28;20816;-57
2023/01/27 04:42:01;;;;;;;11.50;6.80;;;5.40;99.90;;;;;;5035621;28;20459;-57
2023/01/27 04:44:27;;;;;;;10.50;6.20;;;5.40;99.90;;;;;;5035617;28;20461;-57
2023/01/27 04:46:54;;;;;;;10.73;6.13;;;5.40;99.90;;;;;;5035706;28;20435;-57
2023/01/27 04:49:21;;;;;;;9.50;6.33;;;5.40;99.90;;;;;;5035283;28;21005;-57
2023/01/27 04:51:48;;;;;;;11.70;6.97;;;5.40;99.90;;;;;;5035521;28;20568;-57
2023/01/27 04:54:16;;;;;;;10.00;6.77;;;5.30;99.90;;;;;;5035475;28;20446;-57
2023/01/27 04:56:55;;;;;;;12.67;6.50;;;5.30;99.90;;;;;;5035128;28;21008;-57
2023/01/27 04:59:22;;;;;;;11.47;8.00;;;5.30;99.90;;;;;;5035384;28;20438;-57
2023/01/27 05:01:49;;;;;;;11.33;7.63;;;5.40;99.90;;;;;;5034520;28;20453;-57
2023/01/27 05:04:15;;;;;;;12.00;7.00;;;5.40;99.90;;;;;;5034213;28;20505;-57
2023/01/27 05:06:42;;;;;;;16.53;9.43;;;5.40;99.90;;;;;;5035253;28;20446;-57
2023/01/27 05:09:09;;;;;;;11.80;8.70;;;5.40;99.90;;;;;;5035199;28;20446;-57
2023/01/27 05:11:37;;;;;;;12.07;8.50;;;5.40;99.90;;;;;;5035182;28;20449;-57
2023/01/27 05:14:03;;;;;;;12.17;8.60;;;5.40;99.90;;;;;;5027079;28;20533;-57
2023/01/27 05:16:30;;;;;;;13.20;9.57;;;5.40;99.90;;;;;;5014870;28;21034;-57
2023/01/27 05:18:57;;;;;;;12.20;8.50;;;5.40;99.90;;;;;;5015032;28;20959;-57
2023/01/27 05:21:27;;;;;;;12.30;8.90;;;5.30;99.90;;;;;;5014859;28;20952;-57
2023/01/27 05:23:53;;;;;;;14.67;9.97;;;5.30;99.90;;;;;;5015024;28;20477;-57
2023/01/27 05:26:22;;;;;;;16.80;10.20;;;5.30;99.90;;;;;;5024920;28;20454;-57
2023/01/27 05:28:51;;;;;;;13.07;9.37;;;5.30;99.90;;;;;;5034843;28;20457;-57
2023/01/27 05:31:20;;;;;;;18.10;10.60;;;5.30;99.90;;;;;;5034143;28;20461;-57
2023/01/27 05:33:48;;;;;;;17.47;11.97;;;5.30;99.90;;;;;;5034094;28;20473;-57
2023/01/27 05:36:18;;;;;;;16.40;11.40;;;5.30;99.90;;;;;;5033931;28;20860;-57
2023/01/27 05:38:45;;;;;;;16.13;11.20;;;5.30;99.90;;;;;;5033916;28;20462;-57
2023/01/27 05:41:14;;;;;;;17.60;11.00;;;5.20;99.90;;;;;;5034737;28;20504;-57
2023/01/27 05:43:42;;;;;;;20.00;11.97;;;5.20;99.90;;;;;;5034011;28;20474;-58
2023/01/27 05:46:12;;;;;;;17.93;11.50;;;5.20;99.90;;;;;;5034908;28;20447;-57
2023/01/27 05:48:41;;;;;;;18.40;11.70;;;5.20;99.90;;;;;;5034398;28;20430;-58
2023/01/27 05:51:09;;;;;;;15.97;11.47;;;5.20;99.90;;;;;;5034447;28;20508;-57
2023/01/27 05:53:36;;;;;;;20.53;12.83;;;5.20;99.90;;;;;;5033961;28;20500;-57
2023/01/27 05:56:03;;;;;;;19.83;12.87;;;5.20;99.90;;;;;;5034336;28;20520;-58
2023/01/27 05:58:31;;;;;;;19.50;12.50;;;5.20;99.90;;;;;;5033553;28;20815;-58
2023/01/27 06:01:06;;;;;;;22.13;13.67;;;5.20;99.90;;;;;;5033902;28;20903;-57
2023/01/27 06:03:34;;;;;;;19.10;12.30;;;5.20;99.90;;;;;;5033076;28;20466;-57
2023/01/27 06:06:02;;;;;;;20.33;12.97;;;5.20;99.90;;;;;;5034521;28;20435;-58
2023/01/27 06:08:29;;;;;;;19.10;13.87;;;5.30;99.90;;;;;;5033925;28;20452;-57
2023/01/27 06:10:56;;;;;;;20.70;13.93;;;5.30;99.90;;;;;;5033956;28;20451;-57
2023/01/27 06:13:23;;;;;;;22.17;13.90;;;5.30;99.90;;;;;;5033362;28;20474;-57
2023/01/27 06:15:50;;;;;;;18.60;12.53;;;5.30;99.90;;;;;;5033849;28;20474;-57
2023/01/27 06:18:19;;;;;;;21.20;14.70;;;5.30;99.90;;;;;;5033513;28;20454;-57
2023/01/27 06:20:47;;;;;;;26.53;13.60;;;5.30;99.90;;;;;;5033930;28;20438;-58
2023/01/27 06:23:16;;;;;;;19.83;13.20;;;5.30;99.90;;;;;;5033826;28;20476;-57
2023/01/27 06:25:44;;;;;;;18.20;12.30;;;5.30;99.90;;;;;;5033948;28;20429;-57
2023/01/27 06:28:11;;;;;;;20.00;12.23;;;5.30;99.90;;;;;;5033831;28;20462;-57
2023/01/27 06:30:39;;;;;;;18.63;13.63;;;5.30;99.90;;;;;;5034191;28;20488;-56
2023/01/27 06:33:07;;;;;;;28.23;14.63;;;5.30;99.90;;;;;;5033735;28;20527;-57
2023/01/27 06:35:35;;;;;;;19.50;12.17;;;5.30;99.90;;;;;;5033735;28;20505;-57
2023/01/27 06:38:05;;;;;;;20.03;12.30;;;5.30;99.90;;;;;;5033378;28;20955;-57
2023/01/27 06:40:33;;;;;;;17.87;10.87;;;5.30;99.90;;;;;;5033632;28;20860;-57
2023/01/27 06:43:00;;;;;;;21.10;14.77;;;5.30;99.90;;;;;;5033667;28;20478;-57
2023/01/27 06:45:27;;;;;;;17.80;11.57;;;5.30;99.90;;;;;;5033199;28;20941;-57
2023/01/27 06:47:55;;;;;;;19.37;12.20;;;5.30;99.90;;;;;;5033822;28;20520;-57
2023/01/27 06:50:23;;;;;;;21.50;12.33;;;5.30;99.90;;;;;;5033944;28;20455;-57
2023/01/27 06:52:49;;;;;;;20.90;13.57;;;5.30;99.90;;;;;;5033500;28;20974;-56
2023/01/27 06:55:18;;;;;;;15.77;11.57;;;5.40;99.90;;;;;;5033859;28;20442;-57
2023/01/27 06:57:46;;;;;;;17.47;11.73;;;5.40;99.90;;;;;;5033883;28;20470;-57
2023/01/27 07:00:14;;;;;;;15.83;11.40;;;5.40;99.90;;;;;;5034035;28;20447;-57
2023/01/27 07:02:41;;;;;;;16.90;11.90;;;5.40;99.90;;;;;;5033420;28;20467;-57
2023/01/27 07:05:08;;;;;;;19.07;11.10;;;5.40;99.90;;;;;;5033945;28;20435;-57
2023/01/27 07:07:36;;;;;;;20.43;11.73;;;5.40;99.90;;;;;;5034545;28;20454;-56
2023/01/27 07:10:03;;;;;;;16.07;10.47;;;5.40;99.90;;;;;;5034805;28;20489;-57
2023/01/27 07:12:34;;;;;;;14.37;11.70;;;5.40;99.90;;;;;;5034992;28;20547;-57
2023/01/27 07:15:01;;;;;;;14.50;10.13;;;5.40;99.90;;;;;;5033396;28;20441;-57
2023/01/27 07:17:27;;;;;;;15.67;11.03;;;5.40;99.90;;;;;;5033765;28;20474;-56
2023/01/27 07:19:54;;;;;;;16.30;11.10;;;5.50;99.90;;;;;;5033362;28;20806;-57
2023/01/27 07:22:21;;;;;;;18.57;12.27;;;5.50;99.90;;;;;;5032846;28;20872;-57
2023/01/27 07:24:47;;;;;;;18.50;12.03;;;5.40;99.90;;;;;;5033850;28;20443;-57
2023/01/27 07:27:15;;;;;;;16.53;11.80;;;5.50;99.90;;;;;;5036300;28;20957;-57
2023/01/27 07:29:43;;;;;;;17.17;10.50;;;5.50;99.90;;;;;;5037090;28;20481;-57
2023/01/27 07:32:09;;;;;;;14.40;11.33;;;5.50;99.90;;;;;;5037019;28;20469;-57
2023/01/27 07:34:36;;;;;;;12.40;9.73;;;5.50;99.90;;;;;;5037070;28;20438;-57
2023/01/27 07:37:04;;;;;;;14.93;10.50;;;5.50;99.90;;;;;;5036312;28;20860;-58
2023/01/27 07:39:34;;;;;;;14.60;10.60;;;5.50;99.90;;;;;;5036961;28;20449;-57
2023/01/27 07:42:00;;;;;;;12.37;9.93;;;5.50;99.90;;;;;;5036868;28;20436;-57
2023/01/27 07:44:28;;;;;;;14.67;9.70;;;5.50;99.90;;;;;;5036980;28;20461;-57
2023/01/27 07:46:58;;;;;;;11.97;9.90;;;5.50;99.90;;;;;;5036916;28;20505;-57
2023/01/27 07:49:25;;;;;;;13.30;10.50;;;5.50;99.90;;;;;;5036439;28;20907;-57
2023/01/27 07:51:52;;;;;;;14.40;11.03;;;5.50;99.90;;;;;;5036240;28;20919;-57
2023/01/27 07:54:19;;;;;;;13.03;10.50;;;5.50;99.90;;;;;;5036386;28;20446;-57
2023/01/27 07:56:46;;;;;;;16.23;9.93;;;5.50;99.90;;;;;;5036552;28;20470;-57
2023/01/27 07:59:13;;;;;;;12.80;10.30;;;5.50;99.90;;;;;;5036513;28;20445;-57
2023/01/27 08:01:42;;;;;;;14.73;10.10;;;5.50;99.90;;;;;;5036499;28;20430;-57
2023/01/27 08:04:10;;;;;;;12.23;9.73;;;5.50;99.90;;;;;;5036487;28;20531;-57
2023/01/27 08:06:38;;;;;;;12.27;9.50;;;5.60;99.90;;;;;;5037279;28;20439;-57
2023/01/27 08:09:05;;;;;;;10.60;8.60;;;5.60;99.90;;;;;;5036261;28;20493;-57
2023/01/27 08:11:33;;;;;;;13.70;9.60;;;5.60;99.90;;;;;;5036061;28;20457;-57
2023/01/27 08:14:00;;;;;;;13.30;10.10;;;5.60;99.90;;;;;;5028931;28;20490;-57
2023/01/27 08:16:26;;;;;;;11.00;8.50;;;5.70;99.90;;;;;;5016089;28;20994;-57
2023/01/27 08:18:54;;;;;;;15.60;10.43;;;5.70;99.90;;;;;;5016375;28;20432;-57
2023/01/27 08:21:22;;;;;;;13.27;10.53;;;5.80;99.90;;;;;;5016185;28;20431;-57
2023/01/27 08:23:48;;;;;;;12.70;9.23;;;5.80;99.90;;;;;;5016226;28;20468;-57
2023/01/27 08:26:15;;;;;;;10.57;9.17;;;5.80;99.90;;;;;;5016271;28;20838;-57
2023/01/27 08:28:42;;;;;;;12.67;9.13;;;5.80;99.90;;;;;;5016265;28;20440;-56
2023/01/27 08:31:11;;;;;;;11.87;9.70;;;5.80;99.90;;;;;;5016155;28;20432;-57
2023/01/27 08:33:39;;;;;;;10.60;8.90;;;5.90;99.90;;;;;;5016089;28;20471;-56
2023/01/27 08:36:08;;;;;;;10.00;8.67;;;5.90;99.90;;;;;;5016035;28;20471;-56
2023/01/27 08:38:37;;;;;;;10.27;7.97;;;5.90;99.90;;;;;;5015184;28;20467;-56
2023/01/27 08:41:05;;;;;;;11.47;9.40;;;5.90;99.90;;;;;;5015974;28;20459;-56
2023/01/27 08:43:32;;;;;;;11.90;9.00;;;6.00;99.90;;;;;;5015785;28;20475;-56
2023/01/27 08:46:00;;;;;;;11.17;9.37;;;6.00;99.90;;;;;;5015500;28;20945;-57
2023/01/27 08:48:27;;;;;;;10.30;8.70;;;6.00;99.90;;;;;;5015844;28;20458;-57
2023/01/27 08:50:54;;;;;;;10.90;8.80;;;6.10;99.90;;;;;;5015781;28;20450;-57
2023/01/27 08:53:21;;;;;;;10.30;9.07;;;6.10;99.90;;;;;;5015425;28;20475;-57
2023/01/27 08:55:50;;;;;;;8.70;7.80;;;6.20;99.90;;;;;;5034426;28;21000;-57
2023/01/27 08:58:17;;;;;;;9.07;8.17;;;6.20;99.90;;;;;;5035455;28;20439;-57
2023/01/27 09:00:44;;;;;;;9.03;7.90;;;6.20;99.90;;;;;;5035114;28;20984;-57
2023/01/27 09:03:11;;;;;;;9.53;7.40;;;6.30;99.90;;;;;;5034777;28;21005;-57
2023/01/27 09:05:38;;;;;;;8.37;7.30;;;6.30;99.90;;;;;;5035349;28;20440;-58
2023/01/27 09:08:05;;;;;;;9.70;8.70;;;6.30;99.90;;;;;;5035211;28;20454;-58
2023/01/27 09:10:32;;;;;;;10.70;9.60;;;6.30;99.90;;;;;;5035267;28;20459;-58
2023/01/27 09:13:00;;;;;;;10.10;7.57;;;6.30;99.90;;;;;;5034862;28;20881;-58
2023/01/27 09:15:27;;;;;;;10.70;9.20;;;6.40;99.90;;;;;;5035048;28;20439;-58
2023/01/27 09:17:53;;;;;;;10.07;8.97;;;6.40;99.90;;;;;;5035037;28;20537;-58
2023/01/27 09:20:21;;;;;;;8.47;7.67;;;6.40;99.90;;;;;;5035083;28;20458;-57
2023/01/27 09:22:48;;;;;;;8.50;7.67;;;6.40;99.90;;;;;;5033788;28;20475;-58
2023/01/27 09:25:17;;;;;;;8.70;7.80;;;6.40;99.90;;;;;;5034635;28;20450;-58
2023/01/27 09:27:44;;;;;;;9.23;7.67;;;6.40;99.90;;;;;;5034953;28;20430;-58
2023/01/27 09:30:14;;;;;;;8.10;7.30;;;6.40;99.90;;;;;;5034587;28;20473;-58
2023/01/27 09:32:42;;;;;;;8.50;7.47;;;6.40;99.90;;;;;;5034697;28;20462;-58
2023/01/27 09:35:09;;;;;;;8.30;7.50;;;6.40;99.90;;;;;;5035006;28;20469;-58
2023/01/27 09:37:41;;;;;;;9.13;8.23;;;6.40;99.90;;;;;;5034509;28;20490;-57
2023/01/27 09:40:15;;;;;;;9.37;7.83;;;6.30;99.90;;;;;;5034721;28;20500;-57
2023/01/27 09:42:53;;;;;;;9.20;7.87;;;6.40;99.90;;;;;;5034435;28;20496;-58
2023/01/27 09:45:43;;;;;;;9.27;8.37;;;6.30;99.90;;;;;;5034563;28;20446;-57
2023/01/27 09:48:28;;;;;;;8.13;7.00;;;6.30;99.90;;;;;;5025984;28;20450;-57
2023/01/27 09:51:02;;;;;;;8.20;7.40;;;6.40;99.90;;;;;;5033837;28;20443;-57
2023/01/27 09:54:01;;;;;;;9.40;7.50;;;6.40;99.90;;;;;;5034332;28;20463;-57
2023/01/27 09:56:39;;;;;;;8.90;8.00;;;6.40;99.90;;;;;;5034162;28;20478;-57
2023/01/27 09:59:22;;;;;;;11.03;7.60;;;6.40;99.90;;;;;;5034400;28;20439;-57
2023/01/27 10:02:00;;;;;;;9.13;7.70;;;6.50;99.90;;;;;;5034190;28;20431;-57
2023/01/27 10:05:09;;;;;;;8.87;7.97;;;6.50;99.90;;;;;;5034240;28;20470;-57
2023/01/27 10:08:12;;;;;;;9.60;7.40;;;6.50;99.90;;;;;;4992416;28;20444;-57
2023/01/27 10:10:53;;;;;;;9.17;7.93;;;6.60;99.90;;;;;;4992363;28;20846;-57
2023/01/27 10:13:33;;;;;;;8.33;7.40;;;6.60;99.90;;;;;;5027864;28;20530;-57
2023/01/27 10:16:16;;;;;;;7.67;6.90;;;6.70;99.90;;;;;;5033877;28;20438;-57
2023/01/27 10:19:04;;;;;;;8.83;7.70;;;6.70;99.90;;;;;;5033990;28;20435;-57
2023/01/27 10:21:40;;;;;;;8.60;7.73;;;6.80;99.90;;;;;;5033623;28;20792;-57
2023/01/27 10:24:17;;;;;;;9.90;7.30;;;6.90;99.90;;;;;;5033633;28;20474;-57
2023/01/27 10:26:51;;;;;;;7.87;7.07;;;7.00;99.90;;;;;;5033594;28;20919;-57
2023/01/27 10:29:24;;;;;;;9.40;8.43;;;7.10;99.90;;;;;;5033884;28;20437;-57
2023/01/27 10:31:57;;;;;;;8.97;8.07;;;7.10;99.90;;;;;;5033769;28;20436;-57
2023/01/27 10:34:28;;;;;;;8.73;7.83;;;7.10;99.90;;;;;;5033885;28;20527;-57
2023/01/27 10:37:04;;;;;;;8.53;7.70;;;7.10;99.90;;;;;;5033723;28;20559;-58
2023/01/27 10:39:42;;;;;;;8.60;7.70;;;7.10;99.90;;;;;;5033697;28;20450;-58
2023/01/27 10:42:19;;;;;;;8.10;7.30;;;7.20;99.90;;;;;;5033630;28;20473;-58
2023/01/27 10:45:03;;;;;;;9.90;8.77;;;7.20;99.90;;;;;;5033697;28;20431;-58
2023/01/27 10:47:44;;;;;;;9.67;8.50;;;7.30;99.90;;;;;;5033697;28;20444;-58
2023/01/27 10:50:17;;;;;;;8.63;7.73;;;7.30;99.90;;;;;;5033586;28;20427;-58
2023/01/27 10:52:49;;;;;;;9.10;8.13;;;7.20;99.90;;;;;;5033180;28;20976;-58
2023/01/27 10:55:23;;;;;;;8.43;7.70;;;7.30;99.90;;;;;;5033571;28;20508;-58
2023/01/27 10:57:55;;;;;;;9.47;8.50;;;7.40;99.90;;;;;;5033531;28;20472;-57
2023/01/27 11:00:31;;;;;;;9.77;8.30;;;7.40;99.90;;;;;;5032849;28;20443;-57
2023/01/27 11:03:05;;;;;;;8.80;7.90;;;7.40;99.90;;;;;;5033436;28;20472;-58
2023/01/27 11:05:37;;;;;;;8.27;7.40;;;7.50;99.90;;;;;;5033448;28;20433;-57
2023/01/27 11:08:08;;;;;;;9.30;7.50;;;7.50;99.90;;;;;;5033520;28;20431;-57
2023/01/27 11:11:42;;;;;;;8.03;7.30;;;7.50;99.90;;;;;;5033388;28;20935;-57
2023/01/27 11:13:28;;;;;;;7.70;6.90;;;7.50;99.90;;;;;;5030151;28;20519;-57
2023/01/27 11:15:55;;;;;;;8.20;7.30;;;7.60;99.90;;;;;;5013510;28;20497;-58
2023/01/27 11:18:27;;;;;;;9.10;7.50;;;7.60;99.90;;;;;;5013109;28;20848;-57
2023/01/27 11:20:59;;;;;;;7.87;7.07;;;7.70;99.90;;;;;;5013207;28;20860;-56
2023/01/27 11:23:28;;;;;;;7.30;6.20;;;7.70;99.90;;;;;;5013343;28;20465;-57
2023/01/27 11:26:02;;;;;;;9.10;7.50;;;7.80;99.90;;;;;;5013357;28;20458;-56
2023/01/27 11:28:36;;;;;;;6.77;6.17;;;7.70;99.90;;;;;;5013020;28;20867;-58
2023/01/27 11:31:13;;;;;;;7.10;6.40;;;7.80;99.80;;;;;;5012304;28;20560;-57
2023/01/27 11:33:56;;;;;;;7.27;6.50;;;7.80;99.80;;;;;;5013040;28;20482;-57
2023/01/27 11:36:25;;;;;;;7.87;7.17;;;7.80;99.70;;;;;;5010616;28;20797;-58
2023/01/27 11:38:52;;;;;;;7.67;6.70;;;7.80;99.50;;;;;;5012891;28;20491;-57
2023/01/27 11:41:19;;;;;;;8.83;7.70;;;7.70;99.50;;;;;;5013373;28;20436;-57
2023/01/27 11:43:46;;;;;;;8.10;7.30;;;7.70;99.60;;;;;;5013237;28;20829;-57
2023/01/27 11:46:18;;;;;;;7.63;6.93;;;7.60;99.80;;;;;;5018983;28;20477;-58
2023/01/27 11:48:49;;;;;;;9.40;8.20;;;7.60;99.90;;;;;;5032848;28;20444;-57
2023/01/27 11:51:20;;;;;;;7.43;6.73;;;7.60;99.80;;;;;;5031356;28;20439;-57
2023/01/27 11:53:51;;;;;;;7.83;6.63;;;7.70;99.90;;;;;;5032881;28;20486;-57
2023/01/27 11:56:19;;;;;;;9.20;7.43;;;7.70;99.90;;;;;;5032964;28;20444;-57
2023/01/27 11:58:51;;;;;;;11.13;8.90;;;7.70;99.90;;;;;;5032890;28;20511;-57
2023/01/27 12:01:21;;;;;;;7.97;7.17;;;7.70;99.90;;;;;;5032844;28;20444;-57
2023/01/27 12:03:55;;;;;;;9.33;8.20;;;7.70;99.90;;;;;;5032698;28;20470;-56
2023/01/27 12:06:31;;;;;;;9.13;8.23;;;7.70;99.80;;;;;;5032544;28;20922;-57
2023/01/27 12:08:59;;;;;;;8.90;7.40;;;7.70;99.90;;;;;;5032807;28;20468;-57
2023/01/27 12:11:28;;;;;;;8.17;7.17;;;7.60;99.90;;;;;;5034213;28;20433;-56
2023/01/27 12:13:56;;;;;;;8.57;7.27;;;7.60;99.90;;;;;;5036116;28;20472;-57
2023/01/27 12:16:27;;;;;;;9.73;8.10;;;7.60;99.90;;;;;;5036208;28;20441;-57
2023/01/27 12:18:58;;;;;;;9.73;8.57;;;7.60;99.80;;;;;;5035935;28;20989;-56
2023/01/27 12:21:37;;;;;;;8.87;6.90;;;7.60;99.90;;;;;;5036081;28;20443;-57
2023/01/27 12:24:07;;;;;;;9.37;7.30;;;7.70;99.90;;;;;;5036017;28;20470;-57
2023/01/27 12:26:37;;;;;;;9.80;7.77;;;7.70;99.70;;;;;;5035729;28;20454;-56
2023/01/27 12:29:07;;;;;;;9.00;7.70;;;7.70;99.50;;;;;;5036060;28;20773;-57
2023/01/27 12:31:45;;;;;;;10.03;7.10;;;7.70;99.60;;;;;;5035973;28;20431;-56
2023/01/27 12:34:27;;;;;;;9.10;7.10;;;7.70;99.30;;;;;;5036037;28;20429;-57
2023/01/27 12:36:56;;;;;;;8.57;7.67;;;7.70;99.40;;;;;;5035915;28;20436;-57
2023/01/27 12:39:43;;;;;;;9.80;7.67;;;7.70;99.60;;;;;;5035453;28;20972;-57
2023/01/27 12:42:35;;;;;;;10.17;8.63;;;7.70;99.70;;;;;;5035248;28;20479;-57
2023/01/27 12:45:23;;;;;;;8.37;7.33;;;7.70;99.60;;;;;;5035919;28;20474;-58
2023/01/27 12:47:58;;;;;;;13.53;8.63;;;7.70;99.60;;;;;;5035907;28;20488;-56
2023/01/27 12:50:27;;;;;;;9.10;7.80;;;7.70;99.60;;;;;;5035624;28;20438;-57
2023/01/27 12:53:05;;;;;;;9.97;8.60;;;7.70;99.70;;;;;;5035257;28;20476;-57
2023/01/27 12:55:35;;;;;;;9.17;8.20;;;7.60;99.80;;;;;;5035684;28;20432;-57
2023/01/27 12:58:03;;;;;;;8.80;7.50;;;7.60;99.90;;;;;;5035508;28;20809;-57
2023/01/27 13:00:30;;;;;;;10.10;8.47;;;7.60;99.80;;;;;;5035384;28;20438;-58
2023/01/27 13:03:06;;;;;;;10.07;8.87;;;7.60;99.80;;;;;;5034597;28;20476;-57
2023/01/27 13:05:40;;;;;;;8.97;8.07;;;7.60;99.90;;;;;;5035519;28;20806;-57
2023/01/27 13:08:14;;;;;;;10.53;8.50;;;7.50;99.90;;;;;;5035962;28;20454;-56
2023/01/27 13:10:50;;;;;;;10.27;8.70;;;7.50;99.90;;;;;;5035799;28;20439;-57
2023/01/27 13:13:23;;;;;;;14.27;8.37;;;7.40;99.90;;;;;;5035772;28;20485;-57
2023/01/27 13:15:55;;;;;;;10.50;9.20;;;7.40;99.90;;;;;;5034779;28;20444;-57
2023/01/27 13:18:22;;;;;;;10.53;9.43;;;7.30;99.90;;;;;;5036292;28;20497;-57
2023/01/27 13:20:53;;;;;;;9.30;8.40;;;7.30;99.90;;;;;;5036419;28;20462;-57
2023/01/27 13:23:22;;;;;;;9.00;8.10;;;7.30;99.90;;;;;;5036216;28;20474;-57
2023/01/27 13:25:55;;;;;;;9.67;8.30;;;7.20;99.90;;;;;;5035589;28;20943;-57
2023/01/27 13:28:27;;;;;;;10.30;8.50;;;7.20;99.90;;;;;;5035196;28;20909;-57
2023/01/27 13:31:02;;;;;;;9.50;8.17;;;7.20;99.90;;;;;;5035106;28;20444;-57
2023/01/27 13:33:39;;;;;;;8.00;7.20;;;7.20;99.90;;;;;;5034584;28;20996;-57